sensor_id;sensor_type;location;lat;lon;timestamp;pressure;altitude;pressure_sealevel;temperature;humidity
4836;BME280;66719;51.226;6.902;2024-02-28T00:00:25;101233.13;;;3.25;100.00
4836;BME280;66719;51.226;6.902;2024-02-28T00:02:52;101235.88;;;2.90;100.00
4836;BME280;66719;51.226;6.902;2024-02-28T00:05:19;101227.09;;;2.83;100.00
4836;BME280;66719;51.226;6.902;2024-02-28T00:07:45;101238.94;;;2.72;100.00
4836;BME280;66719;51.226;6.902;2024-02-28T00:10:13;101241.59;;;2.77;100.00
4836;BME280;66719;51.226;6.902;2024-02-28T00:12:40;101240.09;;;2.87;100.00
4836;BME280;66719;51.226;6.902;2024-02-28T00:15:07;101245.16;;;2.80;100.00
4836;BME280;66719;51.226;6.902;2024-02-28T00:17:41;101241.00;;;2.87;100.00
4836;BME280;66719;51.226;6.902;2024-02-28T00:20:08;101248.75;;;2.87;100.00
4836;BME280;66719;51.226;6.902;2024-02-28T00:22:36;101253.25;;;2.97;100.00
4836;BME280;66719;51.226;6.902;2024-02-28T00:25:06;101253.53;;;3.11;100.00
4836;BME280;66719;51.226;6.902;2024-02-28T00:27:34;101252.66;;;3.10;100.00
4836;BME280;66719;51.226;6.902;2024-02-28T00:30:01;101251.06;;;3.16;100.00
4836;BME280;66719;51.226;6.902;2024-02-28T00:32:28;101238.31;;;3.26;100.00
4836;BME280;66719;51.226;6.902;2024-02-28T00:34:54;101239.44;;;3.39;100.00
4836;BME280;66719;51.226;6.902;2024-02-28T00:37:21;101241.25;;;3.45;100.00
4836;BME280;66719;51.226;6.902;2024-02-28T00:39:49;101232.88;;;3.58;100.00
4836;BME280;66719;51.226;6.902;2024-02-28T00:42:16;101231.25;;;3.64;100.00
4836;BME280;66719;51.226;6.902;2024-02-28T00:44:43;101235.47;;;3.58;100.00
4836;BME280;66719;51.226;6.902;2024-02-28T00:47:10;101234.78;;;3.66;100.00
4836;BME280;66719;51.226;6.902;2024-02-28T00:49:37;101239.94;;;3.65;100.00
4836;BME280;66719;51.226;6.902;2024-02-28T00:52:03;101243.47;;;3.72;100.00
4836;BME280;66719;51.226;6.902;2024-02-28T00:54:30;101239.16;;;3.72;100.00
4836;BME280;66719;51.226;6.902;2024-02-28T00:56:57;101234.00;;;3.72;100.00
4836;BME280;66719;51.226;6.902;2024-02-28T00:59:23;101233.13;;;3.72;100.00
4836;BME280;66719;51.226;6.902;2024-02-28T01:01:50;101237.44;;;3.71;100.00
4836;BME280;66719;51.226;6.902;2024-02-28T01:04:17;101241.81;;;3.74;100.00
4836;BME280;66719;51.226;6.902;2024-02-28T01:06:43;101222.75;;;3.72;100.00
4836;BME280;66719;51.226;6.902;2024-02-28T01:09:10;101223.63;;;3.72;100.00
4836;BME280;66719;51.226;6.902;2024-02-28T01:11:37;101226.97;;;3.65;100.00
4836;BME280;66719;51.226;6.902;2024-02-28T01:14:04;101235.72;;;3.73;100.00
4836;BME280;66719;51.226;6.902;2024-02-28T01:16:30;101232.19;;;3.66;100.00
4836;BME280;66719;51.226;6.902;2024-02-28T01:18:57;101241.56;;;3.61;100.00
4836;BME280;66719;51.226;6.902;2024-02-28T01:21:24;101238.09;;;3.59;100.00
4836;BME280;66719;51.226;6.902;2024-02-28T01:23:51;101248.41;;;3.56;100.00
4836;BME280;66719;51.226;6.902;2024-02-28T01:26:18;101239.81;;;3.59;100.00
4836;BME280;66719;51.226;6.902;2024-02-28T01:28:48;101241.72;;;3.71;100.00
4836;BME280;66719;51.226;6.902;2024-02-28T01:31:17;101231.16;;;3.58;100.00
4836;BME280;66719;51.226;6.902;2024-02-28T01:33:44;101243.31;;;3.62;100.00
4836;BME280;66719;51.226;6.902;2024-02-28T01:36:11;101238.13;;;3.61;100.00
4836;BME280;66719;51.226;6.902;2024-02-28T01:38:38;101239.09;;;3.66;100.00
4836;BME280;66719;51.226;6.902;2024-02-28T01:41:04;101245.97;;;3.65;100.00
4836;BME280;66719;51.226;6.902;2024-02-28T01:43:32;101246.75;;;3.61;100.00
4836;BME280;66719;51.226;6.902;2024-02-28T01:46:01;101248.50;;;3.62;100.00
4836;BME280;66719;51.226;6.902;2024-02-28T01:48:29;101238.78;;;3.51;100.00
4836;BME280;66719;51.226;6.902;2024-02-28T01:50:56;101233.66;;;3.54;100.00
4836;BME280;66719;51.226;6.902;2024-02-28T01:53:23;101240.75;;;3.64;100.00
4836;BME280;66719;51.226;6.902;2024-02-28T01:55:50;101234.66;;;3.60;100.00
4836;BME280;66719;51.226;6.902;2024-02-28T01:58:18;101245.22;;;3.73;100.00
4836;BME280;66719;51.226;6.902;2024-02-28T02:00:45;101228.94;;;3.78;100.00
4836;BME280;66719;51.226;6.902;2024-02-28T02:03:12;101225.56;;;3.82;100.00
4836;BME280;66719;51.226;6.902;2024-02-28T02:05:41;101223.00;;;3.84;100.00
4836;BME280;66719;51.226;6.902;2024-02-28T02:08:08;101219.38;;;3.74;100.00
4836;BME280;66719;51.226;6.902;2024-02-28T02:10:35;101208.22;;;3.78;100.00
4836;BME280;66719;51.226;6.902;2024-02-28T02:13:06;101216.84;;;3.79;100.00
4836;BME280;66719;51.226;6.902;2024-02-28T02:15:33;101222.03;;;3.79;100.00
4836;BME280;66719;51.226;6.902;2024-02-28T02:17:59;101214.25;;;3.79;100.00
4836;BME280;66719;51.226;6.902;2024-02-28T02:20:30;101215.97;;;3.77;100.00
4836;BME280;66719;51.226;6.902;2024-02-28T02:22:58;101222.00;;;3.77;100.00
4836;BME280;66719;51.226;6.902;2024-02-28T02:25:25;101229.72;;;3.74;100.00
4836;BME280;66719;51.226;6.902;2024-02-28T02:27:51;101224.66;;;3.82;100.00
4836;BME280;66719;51.226;6.902;2024-02-28T02:30:18;101225.59;;;3.84;100.00
4836;BME280;66719;51.226;6.902;2024-02-28T02:32:45;101226.59;;;3.92;100.00
4836;BME280;66719;51.226;6.902;2024-02-28T02:35:11;101219.75;;;3.97;100.00
4836;BME280;66719;51.226;6.902;2024-02-28T02:37:43;101215.50;;;4.01;100.00
4836;BME280;66719;51.226;6.902;2024-02-28T02:40:11;101230.16;;;4.00;100.00
4836;BME280;66719;51.226;6.902;2024-02-28T02:42:38;101230.84;;;3.90;100.00
4836;BME280;66719;51.226;6.902;2024-02-28T02:45:05;101231.63;;;3.84;100.00
4836;BME280;66719;51.226;6.902;2024-02-28T02:47:32;101236.75;;;3.81;100.00
4836;BME280;66719;51.226;6.902;2024-02-28T02:49:59;101248.81;;;3.81;100.00
4836;BME280;66719;51.226;6.902;2024-02-28T02:52:25;101226.44;;;3.84;100.00
4836;BME280;66719;51.226;6.902;2024-02-28T02:54:52;101228.25;;;3.90;100.00
4836;BME280;66719;51.226;6.902;2024-02-28T02:57:18;101227.44;;;3.91;100.00
4836;BME280;66719;51.226;6.902;2024-02-28T02:59:45;101241.34;;;3.97;100.00
4836;BME280;66719;51.226;6.902;2024-02-28T03:02:12;101248.19;;;3.94;100.00
4836;BME280;66719;51.226;6.902;2024-02-28T03:04:38;101251.66;;;3.94;100.00
4836;BME280;66719;51.226;6.902;2024-02-28T03:07:05;101243.88;;;3.94;100.00
4836;BME280;66719;51.226;6.902;2024-02-28T03:09:31;101237.78;;;3.91;100.00
4836;BME280;66719;51.226;6.902;2024-02-28T03:11:58;101240.34;;;3.89;100.00
4836;BME280;66719;51.226;6.902;2024-02-28T03:14:25;101238.63;;;3.90;100.00
4836;BME280;66719;51.226;6.902;2024-02-28T03:16:53;101242.28;;;4.01;100.00
4836;BME280;66719;51.226;6.902;2024-02-28T03:19:20;101249.22;;;4.05;100.00
4836;BME280;66719;51.226;6.902;2024-02-28T03:21:47;101247.50;;;4.06;100.00
4836;BME280;66719;51.226;6.902;2024-02-28T03:24:13;101253.50;;;4.02;100.00
4836;BME280;66719;51.226;6.902;2024-02-28T03:26:43;101244.06;;;4.07;100.00
4836;BME280;66719;51.226;6.902;2024-02-28T03:29:10;101247.53;;;4.07;100.00
4836;BME280;66719;51.226;6.902;2024-02-28T03:31:37;101244.19;;;4.13;100.00
4836;BME280;66719;51.226;6.902;2024-02-28T03:34:04;101252.84;;;4.15;100.00
4836;BME280;66719;51.226;6.902;2024-02-28T03:36:30;101252.81;;;4.13;100.00
4836;BME280;66719;51.226;6.902;2024-02-28T03:38:57;101255.50;;;4.18;100.00
4836;BME280;66719;51.226;6.902;2024-02-28T03:41:24;101251.13;;;4.17;100.00
4836;BME280;66719;51.226;6.902;2024-02-28T03:43:50;101258.84;;;4.12;100.00
4836;BME280;66719;51.226;6.902;2024-02-28T03:46:17;101256.31;;;4.15;100.00
4836;BME280;66719;51.226;6.902;2024-02-28T03:48:44;101251.97;;;4.13;100.00
4836;BME280;66719;51.226;6.902;2024-02-28T03:51:10;101253.78;;;4.18;100.00
4836;BME280;66719;51.226;6.902;2024-02-28T03:53:37;101255.53;;;4.19;100.00
4836;BME280;66719;51.226;6.902;2024-02-28T03:56:05;101253.06;;;4.27;100.00
4836;BME280;66719;51.226;6.902;2024-02-28T03:58:32;101261.75;;;4.31;100.00
4836;BME280;66719;51.226;6.902;2024-02-28T04:00:58;101260.00;;;4.30;100.00
4836;BME280;66719;51.226;6.902;2024-02-28T04:03:25;101261.75;;;4.32;100.00
4836;BME280;66719;51.226;6.902;2024-02-28T04:05:52;101278.25;;;4.37;100.00
4836;BME280;66719;51.226;6.902;2024-02-28T04:08:18;101273.69;;;4.22;100.00
4836;BME280;66719;51.226;6.902;2024-02-28T04:10:45;101272.84;;;4.22;100.00
4836;BME280;66719;51.226;6.902;2024-02-28T04:13:11;101284.03;;;4.21;100.00
4836;BME280;66719;51.226;6.902;2024-02-28T04:15:38;101279.75;;;4.23;100.00
4836;BME280;66719;51.226;6.902;2024-02-28T04:18:05;101287.75;;;4.35;100.00
4836;BME280;66719;51.226;6.902;2024-02-28T04:20:31;101282.69;;;4.44;100.00
4836;BME280;66719;51.226;6.902;2024-02-28T04:22:58;101279.28;;;4.47;100.00
4836;BME280;66719;51.226;6.902;2024-02-28T04:25:25;101279.28;;;4.47;100.00
4836;BME280;66719;51.226;6.902;2024-02-28T04:27:51;101280.22;;;4.52;100.00
4836;BME280;66719;51.226;6.902;2024-02-28T04:30:18;101282.81;;;4.52;100.00
4836;BME280;66719;51.226;6.902;2024-02-28T04:32:45;101282.00;;;4.54;100.00
4836;BME280;66719;51.226;6.902;2024-02-28T04:35:11;101277.66;;;4.55;100.00
4836;BME280;66719;51.226;6.902;2024-02-28T04:37:38;101275.00;;;4.50;100.00
4836;BME280;66719;51.226;6.902;2024-02-28T04:40:05;101267.19;;;4.49;100.00
4836;BME280;66719;51.226;6.902;2024-02-28T04:42:33;101271.63;;;4.56;100.00
4836;BME280;66719;51.226;6.902;2024-02-28T04:44:59;101271.72;;;4.61;100.00
4836;BME280;66719;51.226;6.902;2024-02-28T04:47:26;101270.88;;;4.63;100.00
4836;BME280;66719;51.226;6.902;2024-02-28T04:50:05;101276.00;;;4.60;100.00
4836;BME280;66719;51.226;6.902;2024-02-28T04:52:32;101283.00;;;4.64;100.00
4836;BME280;66719;51.226;6.902;2024-02-28T04:55:00;101289.06;;;4.65;100.00
4836;BME280;66719;51.226;6.902;2024-02-28T04:57:27;101298.59;;;4.67;100.00
4836;BME280;66719;51.226;6.902;2024-02-28T04:59:54;101293.47;;;4.70;100.00
4836;BME280;66719;51.226;6.902;2024-02-28T05:02:20;101305.50;;;4.68;100.00
4836;BME280;66719;51.226;6.902;2024-02-28T05:04:52;101299.31;;;4.57;100.00
4836;BME280;66719;51.226;6.902;2024-02-28T05:07:19;101301.03;;;4.58;100.00
4836;BME280;66719;51.226;6.902;2024-02-28T05:09:45;101305.34;;;4.58;100.00
4836;BME280;66719;51.226;6.902;2024-02-28T05:12:12;101310.53;;;4.56;100.00
4836;BME280;66719;51.226;6.902;2024-02-28T05:14:39;101315.78;;;4.61;100.00
4836;BME280;66719;51.226;6.902;2024-02-28T05:17:05;101316.75;;;4.67;100.00
4836;BME280;66719;51.226;6.902;2024-02-28T05:19:32;101308.16;;;4.71;100.00
4836;BME280;66719;51.226;6.902;2024-02-28T05:21:58;101314.13;;;4.66;100.00
4836;BME280;66719;51.226;6.902;2024-02-28T05:24:27;101312.41;;;4.66;100.00
4836;BME280;66719;51.226;6.902;2024-02-28T05:26:54;101305.56;;;4.71;100.00
4836;BME280;66719;51.226;6.902;2024-02-28T05:29:20;101305.63;;;4.74;100.00
4836;BME280;66719;51.226;6.902;2024-02-28T05:31:47;101315.00;;;4.68;100.00
4836;BME280;66719;51.226;6.902;2024-02-28T05:34:13;101311.69;;;4.76;100.00
4836;BME280;66719;51.226;6.902;2024-02-28T05:36:40;101316.84;;;4.75;100.00
4836;BME280;66719;51.226;6.902;2024-02-28T05:39:07;101326.41;;;4.77;100.00
4836;BME280;66719;51.226;6.902;2024-02-28T05:41:34;101329.94;;;4.82;100.00
4836;BME280;66719;51.226;6.902;2024-02-28T05:44:01;101330.78;;;4.81;100.00
4836;BME280;66719;51.226;6.902;2024-02-28T05:46:27;101332.41;;;4.73;100.00
4836;BME280;66719;51.226;6.902;2024-02-28T05:48:54;101333.22;;;4.69;100.00
4836;BME280;66719;51.226;6.902;2024-02-28T05:51:21;101339.31;;;4.73;100.00
4836;BME280;66719;51.226;6.902;2024-02-28T05:53:48;101347.16;;;4.77;100.00
4836;BME280;66719;51.226;6.902;2024-02-28T05:56:15;101344.63;;;4.82;100.00
4836;BME280;66719;51.226;6.902;2024-02-28T05:58:44;101350.81;;;4.90;100.00
4836;BME280;66719;51.226;6.902;2024-02-28T06:01:12;101338.75;;;4.94;100.00
4836;BME280;66719;51.226;6.902;2024-02-28T06:03:39;101354.38;;;4.97;100.00
4836;BME280;66719;51.226;6.902;2024-02-28T06:06:06;101346.59;;;4.97;100.00
4836;BME280;66719;51.226;6.902;2024-02-28T06:08:34;101355.28;;;5.02;100.00
4836;BME280;66719;51.226;6.902;2024-02-28T06:11:01;101364.81;;;5.03;100.00
4836;BME280;66719;51.226;6.902;2024-02-28T06:13:28;101363.81;;;4.92;100.00
4836;BME280;66719;51.226;6.902;2024-02-28T06:15:57;101359.47;;;4.91;100.00
4836;BME280;66719;51.226;6.902;2024-02-28T06:18:27;101367.25;;;4.91;100.00
4836;BME280;66719;51.226;6.902;2024-02-28T06:20:55;101368.16;;;4.94;100.00
4836;BME280;66719;51.226;6.902;2024-02-28T06:23:24;101365.59;;;4.96;100.00
4836;BME280;66719;51.226;6.902;2024-02-28T06:25:56;101377.75;;;5.00;100.00
4836;BME280;66719;51.226;6.902;2024-02-28T06:28:22;101369.84;;;4.92;100.00
4836;BME280;66719;51.226;6.902;2024-02-28T06:30:49;101376.72;;;4.89;100.00
4836;BME280;66719;51.226;6.902;2024-02-28T06:33:16;101371.63;;;4.95;100.00
4836;BME280;66719;51.226;6.902;2024-02-28T06:35:42;101375.00;;;4.89;100.00
4836;BME280;66719;51.226;6.902;2024-02-28T06:38:09;101371.47;;;4.86;100.00
4836;BME280;66719;51.226;6.902;2024-02-28T06:40:36;101381.06;;;4.88;100.00
4836;BME280;66719;51.226;6.902;2024-02-28T06:43:03;101387.03;;;4.86;100.00
4836;BME280;66719;51.226;6.902;2024-02-28T06:45:29;101385.13;;;4.72;100.00
4836;BME280;66719;51.226;6.902;2024-02-28T06:47:57;101381.63;;;4.70;100.00
4836;BME280;66719;51.226;6.902;2024-02-28T06:50:24;101400.88;;;4.85;100.00
4836;BME280;66719;51.226;6.902;2024-02-28T06:52:50;101400.00;;;4.84;100.00
4836;BME280;66719;51.226;6.902;2024-02-28T06:55:20;101389.41;;;4.70;100.00
4836;BME280;66719;51.226;6.902;2024-02-28T06:57:47;101396.41;;;4.76;100.00
4836;BME280;66719;51.226;6.902;2024-02-28T07:00:14;101388.75;;;4.83;100.00
4836;BME280;66719;51.226;6.902;2024-02-28T07:02:42;101402.53;;;4.79;100.00
4836;BME280;66719;51.226;6.902;2024-02-28T07:05:09;101413.53;;;4.66;100.00
4836;BME280;66719;51.226;6.902;2024-02-28T07:07:36;101419.56;;;4.65;100.00
4836;BME280;66719;51.226;6.902;2024-02-28T07:10:04;101412.56;;;4.60;100.00
4836;BME280;66719;51.226;6.902;2024-02-28T07:12:31;101427.44;;;4.70;100.00
4836;BME280;66719;51.226;6.902;2024-02-28T07:14:58;101422.88;;;4.55;100.00
4836;BME280;66719;51.226;6.902;2024-02-28T07:17:24;101429.69;;;4.50;100.00
4836;BME280;66719;51.226;6.902;2024-02-28T07:19:51;101419.25;;;4.47;100.00
4836;BME280;66719;51.226;6.902;2024-02-28T07:22:18;101424.34;;;4.41;100.00
4836;BME280;66719;51.226;6.902;2024-02-28T07:24:44;101420.88;;;4.40;100.00
4836;BME280;66719;51.226;6.902;2024-02-28T07:27:11;101426.91;;;4.39;100.00
4836;BME280;66719;51.226;6.902;2024-02-28T07:29:38;101430.13;;;4.26;100.00
4836;BME280;66719;51.226;6.902;2024-02-28T07:32:05;101429.44;;;4.35;100.00
4836;BME280;66719;51.226;6.902;2024-02-28T07:34:31;101426.75;;;4.30;100.00
4836;BME280;66719;51.226;6.902;2024-02-28T07:36:58;101428.41;;;4.27;100.00
4836;BME280;66719;51.226;6.902;2024-02-28T07:39:25;101423.28;;;4.31;100.00
4836;BME280;66719;51.226;6.902;2024-02-28T07:41:52;101423.28;;;4.31;100.00
4836;BME280;66719;51.226;6.902;2024-02-28T07:44:22;101428.47;;;4.31;100.00
4836;BME280;66719;51.226;6.902;2024-02-28T07:46:49;101431.41;;;4.49;100.00
4836;BME280;66719;51.226;6.902;2024-02-28T07:49:18;101432.53;;;4.65;100.00
4836;BME280;66719;51.226;6.902;2024-02-28T07:51:45;101436.69;;;4.56;100.00
4836;BME280;66719;51.226;6.902;2024-02-28T07:54:12;101441.59;;;4.40;100.00
4836;BME280;66719;51.226;6.902;2024-02-28T07:56:38;101432.38;;;4.56;100.00
4836;BME280;66719;51.226;6.902;2024-02-28T07:59:05;101434.00;;;4.51;100.00
4836;BME280;66719;51.226;6.902;2024-02-28T08:01:32;101440.31;;;4.64;100.00
4836;BME280;66719;51.226;6.902;2024-02-28T08:03:59;101433.50;;;4.70;100.00
4836;BME280;66719;51.226;6.902;2024-02-28T08:06:26;101430.00;;;4.68;100.00
4836;BME280;66719;51.226;6.902;2024-02-28T08:08:53;101443.19;;;4.80;100.00
4836;BME280;66719;51.226;6.902;2024-02-28T08:11:20;101453.47;;;4.76;100.00
4836;BME280;66719;51.226;6.902;2024-02-28T08:13:46;101453.44;;;4.74;100.00
4836;BME280;66719;51.226;6.902;2024-02-28T08:16:13;101460.41;;;4.77;100.00
4836;BME280;66719;51.226;6.902;2024-02-28T08:18:40;101463.94;;;4.80;100.00
4836;BME280;66719;51.226;6.902;2024-02-28T08:21:08;101459.69;;;4.86;100.00
4836;BME280;66719;51.226;6.902;2024-02-28T08:23:35;101459.63;;;4.82;100.00
4836;BME280;66719;51.226;6.902;2024-02-28T08:26:02;101468.22;;;4.78;100.00
4836;BME280;66719;51.226;6.902;2024-02-28T08:28:30;101462.28;;;4.86;100.00
4836;BME280;66719;51.226;6.902;2024-02-28T08:30:58;101464.88;;;4.86;100.00
4836;BME280;66719;51.226;6.902;2024-02-28T08:33:24;101465.88;;;4.94;100.00
4836;BME280;66719;51.226;6.902;2024-02-28T08:35:51;101464.56;;;4.67;100.00
4836;BME280;66719;51.226;6.902;2024-02-28T08:38:18;101466.75;;;4.44;100.00
4836;BME280;66719;51.226;6.902;2024-02-28T08:40:45;101471.19;;;4.51;100.00
4836;BME280;66719;51.226;6.902;2024-02-28T08:43:12;101466.13;;;4.58;100.00
4836;BME280;66719;51.226;6.902;2024-02-28T08:45:39;101470.66;;;4.69;100.00
4836;BME280;66719;51.226;6.902;2024-02-28T08:48:07;101475.06;;;4.75;100.00
4836;BME280;66719;51.226;6.902;2024-02-28T08:50:34;101472.44;;;4.72;100.00
4836;BME280;66719;51.226;6.902;2024-02-28T08:53:02;101473.34;;;4.75;100.00
4836;BME280;66719;51.226;6.902;2024-02-28T08:55:29;101477.75;;;4.78;100.00
4836;BME280;66719;51.226;6.902;2024-02-28T08:57:56;101483.09;;;4.89;100.00
4836;BME280;66719;51.226;6.902;2024-02-28T09:00:23;101497.41;;;4.67;100.00
4836;BME280;66719;51.226;6.902;2024-02-28T09:02:50;101500.09;;;4.73;100.00
4836;BME280;66719;51.226;6.902;2024-02-28T09:05:17;101503.56;;;4.73;100.00
4836;BME280;66719;51.226;6.902;2024-02-28T09:07:44;101497.72;;;4.85;100.00
4836;BME280;66719;51.226;6.902;2024-02-28T09:10:10;101502.13;;;4.89;100.00
4836;BME280;66719;51.226;6.902;2024-02-28T09:12:37;101509.97;;;4.94;100.00
4836;BME280;66719;51.226;6.902;2024-02-28T09:15:05;101498.00;;;5.02;100.00
4836;BME280;66719;51.226;6.902;2024-02-28T09:17:31;101497.84;;;4.93;100.00
4836;BME280;66719;51.226;6.902;2024-02-28T09:19:58;101505.72;;;4.97;100.00
4836;BME280;66719;51.226;6.902;2024-02-28T09:22:27;101499.59;;;4.94;100.00
4836;BME280;66719;51.226;6.902;2024-02-28T09:24:54;101502.47;;;5.10;100.00
4836;BME280;66719;51.226;6.902;2024-02-28T09:27:21;101499.28;;;5.27;100.00
4836;BME280;66719;51.226;6.902;2024-02-28T09:29:48;101506.31;;;5.32;100.00
4836;BME280;66719;51.226;6.902;2024-02-28T09:32:15;101497.84;;;5.47;100.00
4836;BME280;66719;51.226;6.902;2024-02-28T09:34:41;101497.78;;;5.41;100.00
4836;BME280;66719;51.226;6.902;2024-02-28T09:37:08;101498.66;;;5.42;100.00
4836;BME280;66719;51.226;6.902;2024-02-28T09:39:38;101501.91;;;5.28;100.00
4836;BME280;66719;51.226;6.902;2024-02-28T09:42:06;101495.84;;;5.29;100.00
4836;BME280;66719;51.226;6.902;2024-02-28T09:44:34;101489.91;;;5.36;100.00
4836;BME280;66719;51.226;6.902;2024-02-28T09:47:00;101495.16;;;5.39;100.00
4836;BME280;66719;51.226;6.902;2024-02-28T09:49:28;101499.53;;;5.44;100.00
4836;BME280;66719;51.226;6.902;2024-02-28T09:51:56;101499.66;;;5.51;100.00
4836;BME280;66719;51.226;6.902;2024-02-28T09:54:23;101489.25;;;5.50;100.00
4836;BME280;66719;51.226;6.902;2024-02-28T09:56:51;101497.03;;;5.48;100.00
4836;BME280;66719;51.226;6.902;2024-02-28T09:59:18;101498.78;;;5.51;100.00
4836;BME280;66719;51.226;6.902;2024-02-28T10:01:57;101493.50;;;5.45;100.00
4836;BME280;66719;51.226;6.902;2024-02-28T10:04:26;101486.78;;;5.59;100.00
4836;BME280;66719;51.226;6.902;2024-02-28T10:06:54;101487.66;;;5.59;100.00
4836;BME280;66719;51.226;6.902;2024-02-28T10:09:20;101470.56;;;5.75;100.00
4836;BME280;66719;51.226;6.902;2024-02-28T10:11:47;101471.47;;;5.80;100.00
4836;BME280;66719;51.226;6.902;2024-02-28T10:14:20;101476.13;;;6.00;100.00
4836;BME280;66719;51.226;6.902;2024-02-28T10:16:47;101481.28;;;5.98;100.00
4836;BME280;66719;51.226;6.902;2024-02-28T10:19:13;101484.72;;;5.97;100.00
4836;BME280;66719;51.226;6.902;2024-02-28T10:21:40;101487.41;;;6.02;100.00
4836;BME280;66719;51.226;6.902;2024-02-28T10:24:07;101490.63;;;5.88;100.00
4836;BME280;66719;51.226;6.902;2024-02-28T10:26:41;101491.56;;;5.90;100.00
4836;BME280;66719;51.226;6.902;2024-02-28T10:29:08;101500.41;;;6.02;100.00
4836;BME280;66719;51.226;6.902;2024-02-28T10:31:37;101492.63;;;6.05;100.00
4836;BME280;66719;51.226;6.902;2024-02-28T10:34:04;101490.97;;;6.10;100.00
4836;BME280;66719;51.226;6.902;2024-02-28T10:36:32;101496.28;;;6.19;100.00
4836;BME280;66719;51.226;6.902;2024-02-28T10:39:00;101494.66;;;6.30;100.00
4836;BME280;66719;51.226;6.902;2024-02-28T10:41:28;101501.69;;;6.37;100.00
4836;BME280;66719;51.226;6.902;2024-02-28T10:43:55;101504.31;;;6.40;100.00
4836;BME280;66719;51.226;6.902;2024-02-28T10:46:22;101499.16;;;6.45;100.00
4836;BME280;66719;51.226;6.902;2024-02-28T10:49:02;101513.06;;;6.47;100.00
4836;BME280;66719;51.226;6.902;2024-02-28T10:51:34;101514.81;;;6.49;100.00
4836;BME280;66719;51.226;6.902;2024-02-28T10:54:12;101501.97;;;6.63;100.00
4836;BME280;66719;51.226;6.902;2024-02-28T10:56:41;101504.75;;;6.82;100.00
4836;BME280;66719;51.226;6.902;2024-02-28T10:59:10;101495.31;;;6.94;100.00
4836;BME280;66719;51.226;6.902;2024-02-28T11:01:47;101503.19;;;7.02;100.00
4836;BME280;66719;51.226;6.902;2024-02-28T11:04:16;101499.75;;;7.06;100.00
4836;BME280;66719;51.226;6.902;2024-02-28T11:06:51;101502.38;;;7.11;100.00
4836;BME280;66719;51.226;6.902;2024-02-28T11:09:22;101508.50;;;7.16;100.00
4836;BME280;66719;51.226;6.902;2024-02-28T11:11:50;101512.00;;;7.21;100.00
4836;BME280;66719;51.226;6.902;2024-02-28T11:14:18;101518.94;;;7.19;100.00
4836;BME280;66719;51.226;6.902;2024-02-28T11:17:02;101514.59;;;7.15;100.00
4836;BME280;66719;51.226;6.902;2024-02-28T11:19:30;101510.31;;;7.23;100.00
4836;BME280;66719;51.226;6.902;2024-02-28T11:22:02;101510.31;;;7.21;100.00
4836;BME280;66719;51.226;6.902;2024-02-28T11:24:32;101509.50;;;7.30;100.00
4836;BME280;66719;51.226;6.902;2024-02-28T11:27:00;101493.91;;;7.34;100.00
4836;BME280;66719;51.226;6.902;2024-02-28T11:29:29;101485.16;;;7.29;100.00
4836;BME280;66719;51.226;6.902;2024-02-28T11:31:56;101484.34;;;7.33;100.00
4836;BME280;66719;51.226;6.902;2024-02-28T11:34:23;101480.00;;;7.37;100.00
4836;BME280;66719;51.226;6.902;2024-02-28T11:36:50;101474.81;;;7.37;100.00
4836;BME280;66719;51.226;6.902;2024-02-28T11:39:17;101466.97;;;7.31;100.00
4836;BME280;66719;51.226;6.902;2024-02-28T11:41:45;101470.47;;;7.36;100.00
4836;BME280;66719;51.226;6.902;2024-02-28T11:44:13;101466.16;;;7.43;100.00
4836;BME280;66719;51.226;6.902;2024-02-28T11:46:47;101461.88;;;7.48;100.00
4836;BME280;66719;51.226;6.902;2024-02-28T11:49:15;101458.44;;;7.58;100.00
4836;BME280;66719;51.226;6.902;2024-02-28T11:51:43;101449.78;;;7.57;100.00
4836;BME280;66719;51.226;6.902;2024-02-28T11:54:10;101454.16;;;7.71;100.00
4836;BME280;66719;51.226;6.902;2024-02-28T11:56:40;101458.53;;;7.73;100.00
4836;BME280;66719;51.226;6.902;2024-02-28T11:59:08;101445.47;;;7.67;100.00
4836;BME280;66719;51.226;6.902;2024-02-28T12:01:38;101443.72;;;7.64;100.00
4836;BME280;66719;51.226;6.902;2024-02-28T12:04:05;101442.00;;;7.70;100.00
4836;BME280;66719;51.226;6.902;2024-02-28T12:06:36;101445.50;;;7.75;100.00
4836;BME280;66719;51.226;6.902;2024-02-28T12:09:08;101436.00;;;7.86;100.00
4836;BME280;66719;51.226;6.902;2024-02-28T12:11:36;101432.53;;;7.87;100.00
4836;BME280;66719;51.226;6.902;2024-02-28T12:14:07;101429.91;;;7.84;100.00
4836;BME280;66719;51.226;6.902;2024-02-28T12:16:36;101436.88;;;7.88;100.00
4836;BME280;66719;51.226;6.902;2024-02-28T12:19:11;101430.84;;;8.03;100.00
4836;BME280;66719;51.226;6.902;2024-02-28T12:21:38;101423.03;;;8.16;100.00
4836;BME280;66719;51.226;6.902;2024-02-28T12:24:09;101411.78;;;8.28;100.00
4836;BME280;66719;51.226;6.902;2024-02-28T12:26:39;101417.94;;;8.35;100.00
4836;BME280;66719;51.226;6.902;2024-02-28T12:29:07;101410.03;;;8.32;100.00
4836;BME280;66719;51.226;6.902;2024-02-28T12:31:34;101415.25;;;8.32;100.00
4836;BME280;66719;51.226;6.902;2024-02-28T12:34:00;101413.59;;;8.57;100.00
4836;BME280;66719;51.226;6.902;2024-02-28T12:36:27;101408.38;;;8.57;100.00
4836;BME280;66719;51.226;6.902;2024-02-28T12:38:54;101397.06;;;8.65;100.00
4836;BME280;66719;51.226;6.902;2024-02-28T12:41:21;101391.84;;;8.68;100.00
4836;BME280;66719;51.226;6.902;2024-02-28T12:43:47;101389.25;;;8.67;100.00
4836;BME280;66719;51.226;6.902;2024-02-28T12:46:14;101384.00;;;8.76;100.00
4836;BME280;66719;51.226;6.902;2024-02-28T12:48:42;101377.06;;;8.83;100.00
4836;BME280;66719;51.226;6.902;2024-02-28T12:51:13;101379.66;;;8.95;100.00
4836;BME280;66719;51.226;6.902;2024-02-28T12:53:46;101383.13;;;9.00;100.00
4836;BME280;66719;51.226;6.902;2024-02-28T12:56:17;101384.00;;;9.00;100.00
4836;BME280;66719;51.226;6.902;2024-02-28T12:58:44;101375.28;;;9.09;100.00
4836;BME280;66719;51.226;6.902;2024-02-28T13:01:11;101367.44;;;9.12;100.00